Time;durP1;ratioP1;P1;durP2;ratioP2;P2;SDS_P1;SDS_P2;PMS_P1;PMS_P2;Temp;Humidity;BMP_temperature;BMP_pressure;BME280_temperature;BME280_humidity;BME280_pressure;Samples;Min_cycle;Max_cycle;Signal;HPM_P1;HPM_P2
2021/05/13 00:00:10;;;;;;;7.40;5.43;;;;;;;10.18;100.00;97004.38;5034402;28;20096;-79
2021/05/13 00:02:38;;;;;;;6.85;5.18;;;;;;;10.22;100.00;97015.34;5053534;28;20100;-81
2021/05/13 00:05:06;;;;;;;7.05;4.70;;;;;;;10.18;100.00;97004.38;5043325;28;20263;-80
2021/05/13 00:07:32;;;;;;;7.35;4.60;;;;;;;10.12;100.00;97000.25;5051662;28;20048;-79
2021/05/13 00:09:59;;;;;;;6.07;4.32;;;;;;;10.12;100.00;96994.84;5051071;28;20359;-79
2021/05/13 00:13:11;;;;;;;5.93;4.55;;;;;;;10.12;100.00;97000.25;5055825;28;20060;-79
2021/05/13 00:15:17;;;;;;;8.07;4.53;;;;;;;10.16;100.00;96995.00;5029171;28;20059;-79
2021/05/13 00:17:44;;;;;;;7.60;4.47;;;;;;;10.12;100.00;96983.22;5021190;28;20076;-79
2021/05/13 00:20:16;;;;;;;6.63;4.80;;;;;;;10.11;100.00;96989.75;5033427;28;20064;-80
2021/05/13 00:22:44;;;;;;;5.55;4.20;;;;;;;10.11;100.00;96985.13;5035169;28;20044;-80
2021/05/13 00:25:13;;;;;;;6.65;4.00;;;;;;;10.12;100.00;96984.03;5054107;28;20033;-79
2021/05/13 00:27:40;;;;;;;9.27;5.25;;;;;;;10.17;100.00;96983.06;5049764;28;20541;-80
2021/05/13 00:30:08;;;;;;;7.10;5.00;;;;;;;10.12;100.00;96985.94;5049981;28;20057;-80
2021/05/13 00:32:36;;;;;;;5.40;3.95;;;;;;;10.07;100.00;96980.69;5050384;28;20048;-78
2021/05/13 00:35:09;;;;;;;5.88;4.07;;;;;;;10.04;100.00;96985.63;5054376;28;20048;-79
2021/05/13 00:37:36;;;;;;;6.25;4.18;;;;;;;10.11;100.00;96978.91;5043563;28;20041;-78
2021/05/13 00:40:05;;;;;;;8.00;4.95;;;;;;;10.09;100.00;96978.47;5054469;28;20051;-80
2021/05/13 00:42:32;;;;;;;9.07;5.57;;;;;;;10.11;100.00;96978.91;5081095;28;20044;-80
2021/05/13 04:56:08;;;;;;;15.18;10.45;;;;;;;8.93;100.00;96842.97;5009275;28;20155;-80
2021/05/13 04:58:36;;;;;;;15.98;10.55;;;;;;;8.91;100.00;96839.00;5014550;28;20057;-80
2021/05/13 05:01:03;;;;;;;14.65;9.95;;;;;;;8.89;100.00;96836.63;4993200;28;20434;-80
2021/05/13 05:03:30;;;;;;;14.15;9.73;;;;;;;8.85;100.00;96843.81;4986321;28;20043;-80
2021/05/13 05:05:57;;;;;;;17.73;10.00;;;;;;;8.86;100.00;96845.38;4979412;28;20070;-79
2021/05/13 05:08:24;;;;;;;16.05;10.13;;;;;;;8.93;100.00;96847.59;4979802;28;20046;-80
2021/05/13 05:10:50;;;;;;;17.38;11.25;;;;;;;8.94;100.00;96841.84;4979305;28;20054;-81
2021/05/13 05:13:17;;;;;;;18.00;11.98;;;;;;;8.95;100.00;96838.06;4982748;28;20126;-79
2021/05/13 05:15:44;;;;;;;19.60;11.88;;;;;;;8.97;100.00;96835.03;4977255;28;20046;-81
2021/05/13 05:18:21;;;;;;;18.25;12.35;;;;;;;8.96;100.00;96833.41;4977004;28;20384;-79
2021/05/13 05:20:49;;;;;;;17.90;12.32;;;;;;;9.02;100.00;96848.34;4973775;28;20113;-80
2021/05/13 05:23:16;;;;;;;17.27;11.73;;;;;;;9.01;100.00;96846.75;4975931;28;20074;-79
2021/05/13 05:25:46;;;;;;;22.90;14.05;;;;;;;9.06;100.00;96849.28;4976940;28;20065;-80
2021/05/13 05:28:13;;;;;;;21.13;13.90;;;;;;;8.98;100.00;96836.63;4975225;28;20495;-81
2021/05/13 05:30:40;;;;;;;22.67;13.38;;;;;;;9.03;100.00;96845.34;4975620;28;20212;-80
2021/05/13 05:33:10;;;;;;;24.95;15.73;;;;;;;9.04;100.00;96848.81;4975451;28;20070;-80
2021/05/13 05:35:38;;;;;;;27.02;17.17;;;;;;;8.99;100.00;96836.28;4975229;28;20085;-82
2021/05/13 05:38:07;;;;;;;33.35;20.13;;;;;;;9.05;100.00;96853.88;4991461;28;20528;-81
2021/05/13 05:40:37;;;;;;;31.73;19.13;;;;;;;8.98;100.00;96844.72;4973258;28;20076;-80
2021/05/13 05:43:05;;;;;;;31.70;20.27;;;;;;;8.99;100.00;96838.19;4978302;28;20054;-81
2021/05/13 05:45:32;;;;;;;29.13;19.52;;;;;;;8.96;100.00;96845.03;4974994;28;20082;-81
2021/05/13 05:48:00;;;;;;;27.83;18.85;;;;;;;8.99;100.00;96836.28;4960634;28;20058;-80
2021/05/13 05:50:31;;;;;;;34.17;19.00;;;;;;;8.96;100.00;96836.91;4978123;28;20058;-81
2021/05/13 05:52:58;;;;;;;31.90;20.52;;;;;;;9.01;100.00;96836.75;4985003;28;20057;-80
2021/05/13 05:55:25;;;;;;;30.75;19.35;;;;;;;8.91;100.00;96831.69;4983534;28;20154;-79
2021/05/13 05:57:52;;;;;;;29.10;19.85;;;;;;;8.96;100.00;96836.91;4966561;28;20113;-80
2021/05/13 06:00:19;;;;;;;30.63;20.20;;;;;;;8.97;100.00;96835.03;4962132;28;20122;-80
2021/05/13 06:02:46;;;;;;;34.95;19.60;;;;;;;9.00;100.00;96840.56;4964728;28;20061;-81
2021/05/13 06:05:14;;;;;;;34.05;20.48;;;;;;;9.09;100.00;96843.22;4958489;29;20044;-81
2021/05/13 06:07:43;;;;;;;32.10;19.17;;;;;;;9.01;100.00;96833.25;4972346;28;20066;-81
2021/05/13 06:10:11;;;;;;;29.25;19.30;;;;;;;9.03;100.00;96837.22;4982380;28;20061;-81
2021/05/13 06:12:40;;;;;;;30.83;19.60;;;;;;;9.09;100.00;96845.91;4951450;28;20160;-79
2021/05/13 06:15:10;;;;;;;31.42;19.13;;;;;;;9.07;100.00;96850.84;4979819;28;20495;-82
2021/05/13 06:17:37;;;;;;;35.20;20.55;;;;;;;8.85;100.00;96807.94;4976241;28;20065;-81
2021/05/13 06:20:06;;;;;;;30.40;19.42;;;;;;;9.04;100.00;96848.81;4976641;28;20042;-82
2021/05/13 06:22:33;;;;;;;33.80;20.17;;;;;;;8.97;100.00;96835.03;5046732;23;20345;-77
2021/05/13 06:25:00;;;;;;;29.80;19.90;;;;;;;8.89;100.00;96839.34;4970898;28;20047;-77
2021/05/13 06:27:28;;;;;;;30.17;20.70;;;;;;;8.95;100.00;96850.75;4971688;28;20142;-77
2021/05/13 06:29:55;;;;;;;32.55;20.52;;;;;;;8.96;100.00;96841.53;4960160;28;20185;-78
2021/05/13 06:32:22;;;;;;;32.47;20.17;;;;;;;8.91;100.00;96844.41;4984666;28;20054;-77
2021/05/13 06:34:48;;;;;;;31.48;19.90;;;;;;;8.90;100.00;96846.34;4995141;23;20221;-78
2021/05/13 06:37:15;;;;;;;29.13;19.58;;;;;;;8.87;100.00;96852.38;4990727;28;20123;-81
2021/05/13 06:39:42;;;;;;;30.73;18.38;;;;;;;8.80;100.00;96840.50;4976102;28;20074;-80
2021/05/13 06:42:08;;;;;;;26.05;17.60;;;;;;;8.80;100.00;96851.28;4994494;28;20046;-80
2021/05/13 06:44:35;;;;;;;26.20;17.45;;;;;;;8.79;100.00;96847.78;4991752;28;20054;-79
2021/05/13 06:47:02;;;;;;;26.65;17.70;;;;;;;8.83;100.00;96847.94;4993876;28;20050;-78
2021/05/13 06:49:29;;;;;;;28.45;18.27;;;;;;;8.91;100.00;96849.78;4990539;28;20046;-75
2021/05/13 06:51:55;;;;;;;25.75;17.02;;;;;;;8.93;100.00;96847.59;4987960;28;20448;-77
2021/05/13 06:54:22;;;;;;;27.73;16.15;;;;;;;8.85;100.00;96851.09;4987350;28;20057;-76
2021/05/13 06:56:49;;;;;;;23.60;17.40;;;;;;;8.90;100.00;96850.94;4990822;28;20065;-79
2021/05/13 06:59:16;;;;;;;20.80;14.25;;;;;;;8.93;100.00;96842.19;4992963;28;20428;-78
2021/05/13 07:01:42;;;;;;;21.10;15.35;;;;;;;8.95;100.00;96845.34;4994896;28;20097;-79
2021/05/13 07:04:09;;;;;;;21.50;14.27;;;;;;;8.95;100.00;96846.16;4992886;28;20062;-79
2021/05/13 07:06:37;;;;;;;17.67;12.70;;;;;;;8.85;100.00;96841.09;4994367;28;20124;-80
2021/05/13 07:09:07;;;;;;;18.10;11.10;;;;;;;8.81;100.00;96842.06;4990357;28;20050;-80
2021/05/13 07:11:34;;;;;;;18.92;12.50;;;;;;;8.89;100.00;96844.72;4987487;28;20085;-77
2021/05/13 07:14:01;;;;;;;21.23;12.38;;;;;;;9.06;100.00;96852.00;4989669;28;20488;-79
2021/05/13 07:16:30;;;;;;;17.25;11.73;;;;;;;9.02;100.00;96842.94;5004274;28;20510;-77
2021/05/13 07:18:58;;;;;;;14.25;10.40;;;;;;;9.04;100.00;96846.09;4989606;28;20046;-81
2021/05/13 07:21:25;;;;;;;13.23;9.30;;;;;;;9.06;100.00;96838.50;4988468;28;20057;-79
2021/05/13 07:23:52;;;;;;;13.43;9.00;;;;;;;9.08;100.00;96838.94;4990423;28;20112;-81
2021/05/13 07:26:19;;;;;;;13.27;9.43;;;;;;;9.02;100.00;96845.63;4988303;28;20336;-81
2021/05/13 07:28:46;;;;;;;18.17;9.48;;;;;;;8.98;100.00;96842.78;4989265;28;20052;-80
2021/05/13 07:31:13;;;;;;;13.32;9.73;;;;;;;9.10;100.00;96852.91;4991876;28;20050;-79
2021/05/13 07:33:40;;;;;;;14.18;9.30;;;;;;;9.08;100.00;96838.94;4990004;28;20603;-79
2021/05/13 07:36:08;;;;;;;14.55;9.32;;;;;;;9.14;100.00;96841.13;4973849;28;20093;-81
2021/05/13 07:38:35;;;;;;;15.85;9.60;;;;;;;9.27;100.00;96845.53;4991066;28;20375;-78
2021/05/13 07:41:06;;;;;;;18.90;10.25;;;;;;;9.25;100.00;96844.25;4983777;28;20088;-80
2021/05/13 07:43:35;;;;;;;14.45;10.35;;;;;;;9.23;100.00;96846.50;4981200;28;20046;-79
2021/05/13 07:46:03;;;;;;;15.98;10.57;;;;;;;9.24;100.00;96835.38;4977960;28;20038;-80
2021/05/13 07:48:32;;;;;;;17.00;11.20;;;;;;;9.24;100.00;96839.97;4977770;28;20046;-78
2021/05/13 07:50:58;;;;;;;16.50;11.30;;;;;;;9.24;100.00;96837.25;4979386;28;20050;-77
2021/05/13 07:53:26;;;;;;;18.02;10.68;;;;;;;9.14;100.00;96840.34;4976154;28;20062;-77
2021/05/13 07:55:53;;;;;;;20.90;12.27;;;;;;;9.21;100.00;96852.22;4977161;28;20745;-79
2021/05/13 07:58:20;;;;;;;21.98;12.05;;;;;;;9.12;100.00;96847.97;4975804;28;20050;-79
2021/05/13 08:00:48;;;;;;;20.67;11.88;;;;;;;9.25;100.00;96849.66;4990388;28;20034;-78
2021/05/13 08:03:15;;;;;;;16.55;10.80;;;;;;;9.39;100.00;96845.59;4992631;28;20639;-79
2021/05/13 08:05:43;;;;;;;20.15;10.80;;;;;;;9.36;100.00;96840.88;4995149;28;20050;-79
2021/05/13 08:08:09;;;;;;;15.07;9.95;;;;;;;9.23;100.00;96841.09;4997776;28;20421;-80
2021/05/13 08:10:36;;;;;;;15.50;10.13;;;;;;;9.25;100.00;96841.56;4991661;28;20059;-78
2021/05/13 08:13:02;;;;;;;14.77;10.40;;;;;;;9.22;100.00;96836.81;4992612;28;20053;-80
2021/05/13 08:15:29;;;;;;;18.80;10.30;;;;;;;9.12;100.00;96842.56;4993980;28;20038;-79
2021/05/13 08:17:56;;;;;;;14.75;9.90;;;;;;;9.17;100.00;96840.50;4995809;28;20547;-79
2021/05/13 08:20:22;;;;;;;18.17;10.77;;;;;;;9.25;100.00;96842.34;4995944;28;20042;-77
2021/05/13 08:22:49;;;;;;;16.00;9.52;;;;;;;9.28;100.00;96833.63;4997622;28;20050;-79
2021/05/13 08:25:19;;;;;;;14.70;9.05;;;;;;;9.25;100.00;96839.66;4994735;28;20042;-80
2021/05/13 08:27:47;;;;;;;16.30;8.15;;;;;;;9.31;100.00;96835.66;4993698;28;20046;-80
2021/05/13 08:30:15;;;;;;;14.73;9.35;;;;;;;9.26;100.00;96826.97;4994774;28;20050;-77
2021/05/13 08:32:42;;;;;;;16.52;9.48;;;;;;;9.37;100.00;96834.34;4994235;28;20050;-78
2021/05/13 08:35:10;;;;;;;17.83;9.68;;;;;;;9.45;100.00;96829.22;4993796;28;20050;-78
2021/05/13 08:37:37;;;;;;;14.45;8.75;;;;;;;9.50;100.00;96826.34;4995592;28;20053;-78
2021/05/13 08:40:05;;;;;;;13.55;7.90;;;;;;;9.47;100.00;96827.00;4990917;28;20050;-78
2021/05/13 08:42:33;;;;;;;13.32;7.88;;;;;;;9.45;100.00;96827.31;4992031;28;20046;-79
2021/05/13 08:45:00;;;;;;;13.88;7.45;;;;;;;9.37;100.00;96825.44;4991324;28;20528;-80
2021/05/13 08:47:27;;;;;;;14.85;9.13;;;;;;;9.50;100.00;96824.41;4980310;28;20051;-79
2021/05/13 08:49:53;;;;;;;12.93;9.27;;;;;;;9.47;100.00;96830.50;4990196;28;20042;-78
2021/05/13 08:52:21;;;;;;;15.23;9.95;;;;;;;9.49;100.00;96820.16;4992281;28;20046;-78
2021/05/13 08:54:57;;;;;;;15.73;8.82;;;;;;;9.47;100.00;96827.78;4993696;28;20113;-79
2021/05/13 08:57:24;;;;;;;13.02;8.88;;;;;;;9.27;100.00;96829.31;4993994;28;20579;-81
2021/05/13 08:59:51;;;;;;;14.95;9.25;;;;;;;9.31;100.00;96824.88;4992046;28;20047;-80
2021/05/13 09:02:19;;;;;;;11.50;6.90;;;;;;;9.55;100.00;96835.03;4993528;28;20057;-79
2021/05/13 09:04:48;;;;;;;11.32;5.93;;;;;;;9.45;100.00;96823.81;4992416;28;20504;-80
2021/05/13 09:07:23;;;;;;;12.52;7.53;;;;;;;9.63;100.00;96830.69;4977386;28;20071;-78
2021/05/13 09:09:57;;;;;;;12.57;7.40;;;;;;;9.64;100.00;96827.69;4988284;28;20057;-79
2021/05/13 09:12:26;;;;;;;12.95;7.80;;;;;;;9.66;100.00;96821.94;4992254;28;20054;-79
2021/05/13 09:15:09;;;;;;;12.05;7.75;;;;;;;9.74;100.00;96821.88;4992554;28;20046;-79
2021/05/13 09:17:38;;;;;;;12.35;7.63;;;;;;;9.67;100.00;96827.03;4981430;28;20057;-79
2021/05/13 09:20:20;;;;;;;12.00;6.60;;;;;;;9.69;100.00;96819.38;4979500;28;20046;-79
2021/05/13 09:22:47;;;;;;;9.20;6.22;;;;;;;9.52;100.00;96818.69;4976754;28;20050;-79
2021/05/13 09:25:14;;;;;;;16.60;7.07;;;;;;;9.45;100.00;96830.00;4972926;28;20434;-80
2021/05/13 09:27:46;;;;;;;14.93;8.15;;;;;;;9.56;100.00;96823.13;4970738;28;20050;-78
2021/05/13 09:30:18;;;;;;;9.82;7.18;;;;;;;9.58;100.00;96820.88;4972764;28;20059;-79
2021/05/13 09:32:51;;;;;;;12.15;7.57;;;;;;;9.58;100.00;96828.19;4955122;28;20540;-79
2021/05/13 09:35:22;;;;;;;10.70;6.85;;;;;;;9.55;100.00;96818.81;4974654;28;20047;-79
2021/05/13 09:37:53;;;;;;;11.68;6.78;;;;;;;9.52;100.00;96821.41;4977265;28;20057;-80
2021/05/13 09:40:39;;;;;;;9.48;7.00;;;;;;;9.54;100.00;96819.97;4992441;28;20060;-79
2021/05/13 09:43:11;;;;;;;14.05;8.40;;;;;;;9.56;100.00;96822.31;4992597;28;20046;-80
2021/05/13 09:45:53;;;;;;;10.95;6.40;;;;;;;9.37;100.00;96828.16;5000066;28;20126;-80
2021/05/13 09:48:45;;;;;;;15.50;7.43;;;;;;;9.47;100.00;96825.09;4999145;28;20042;-79
2021/05/13 09:51:30;;;;;;;14.50;7.40;;;;;;;9.59;100.00;96824.38;4991215;28;20042;-80
2021/05/13 09:54:16;;;;;;;11.02;6.45;;;;;;;9.69;100.00;96819.38;4991925;28;20046;-78
2021/05/13 09:56:50;;;;;;;9.95;5.70;;;;;;;9.56;100.00;96831.22;4991978;28;20651;-79
2021/05/13 09:59:28;;;;;;;14.70;7.30;;;;;;;9.46;100.00;96828.91;4990415;28;20073;-77
2021/05/13 10:01:55;;;;;;;10.90;7.35;;;;;;;9.56;100.00;96819.63;4993821;28;20053;-79
2021/05/13 10:04:22;;;;;;;10.75;5.97;;;;;;;9.60;100.00;96824.03;4976937;28;20053;-79
2021/05/13 10:06:51;;;;;;;10.48;3.88;;;;;;;9.38;100.00;96813.53;5004444;28;20047;-79
2021/05/13 10:09:20;;;;;;;10.80;5.25;;;;;;;9.55;100.00;96818.81;4992469;28;20134;-78
2021/05/13 10:11:58;;;;;;;11.73;5.10;;;;;;;9.57;100.00;96827.41;4991865;28;20054;-78
2021/05/13 10:14:27;;;;;;;6.80;4.50;;;;;;;9.56;100.00;96819.63;4991501;28;20063;-79
2021/05/13 10:16:56;;;;;;;7.15;4.38;;;;;;;9.56;100.00;96809.59;4991662;28;20359;-78
2021/05/13 10:19:28;;;;;;;9.23;4.50;;;;;;;9.62;100.00;96805.59;4987211;28;20483;-78
2021/05/13 10:21:56;;;;;;;9.82;4.43;;;;;;;9.67;100.00;96810.00;4989879;28;20064;-78
2021/05/13 10:24:23;;;;;;;8.75;4.50;;;;;;;9.63;100.00;96793.66;4990885;28;20605;-79
2021/05/13 10:26:51;;;;;;;10.88;4.60;;;;;;;9.58;100.00;96798.47;4991492;28;20066;-79
2021/05/13 10:29:27;;;;;;;11.98;4.85;;;;;;;9.62;100.00;96802.91;4989778;28;20046;-77
2021/05/13 10:32:08;;;;;;;10.90;5.57;;;;;;;9.49;100.00;96798.53;4994387;28;20074;-79
2021/05/13 10:34:41;;;;;;;11.88;5.80;;;;;;;9.55;100.00;96801.84;4995022;28;20073;-78
2021/05/13 10:37:16;;;;;;;12.68;6.15;;;;;;;9.61;100.00;96798.59;5005633;28;20073;-78
2021/05/13 10:42:41;;;;;;;12.40;7.40;;;;;;;9.62;100.00;96792.09;5022926;28;20054;-78
2021/05/13 10:45:23;;;;;;;12.55;7.32;;;;;;;9.70;100.00;96804.75;4988438;28;20043;-78
2021/05/13 10:48:37;;;;;;;15.20;8.30;;;;;;;9.72;100.00;96797.09;4989083;28;20611;-77
2021/05/13 10:51:07;;;;;;;13.52;7.88;;;;;;;9.65;100.00;96802.22;4965918;28;20058;-78
2021/05/13 10:53:47;;;;;;;15.38;7.82;;;;;;;9.64;100.00;96789.84;4990340;28;20092;-79
2021/05/13 10:56:27;;;;;;;11.35;7.10;;;;;;;9.63;100.00;96804.47;4990713;28;20046;-77
2021/05/13 10:58:58;;;;;;;13.20;6.88;;;;;;;9.71;100.00;96798.22;4995037;28;20547;-78
2021/05/13 11:01:41;;;;;;;14.98;7.30;;;;;;;9.88;100.00;96786.50;4972062;28;20051;-78
2021/05/13 11:04:20;;;;;;;13.40;6.25;;;;;;;9.93;100.00;96792.50;4984159;28;20118;-77
2021/05/13 11:06:54;;;;;;;14.85;5.90;;;;;;;9.98;100.00;96784.16;4972621;28;20625;-77
2021/05/13 11:09:37;;;;;;;;;;;;;;;9.91;100.00;96783.13;4981415;28;20109;-78
2021/05/13 11:12:35;;;;;;;12.45;5.78;;;;;;;9.99;100.00;96785.75;4987615;28;19984;-77
2021/05/13 11:15:14;;;;;;;12.77;6.13;;;;;;;10.15;100.00;96779.75;4987964;28;20053;-78
2021/05/13 11:17:58;;;;;;;11.43;6.15;;;;;;;10.27;100.00;96769.75;4989585;28;20054;-78
2021/05/13 11:20:24;;;;;;;10.35;5.97;;;;;;;10.18;100.00;96777.19;4990927;28;20046;-78
2021/05/13 11:22:54;;;;;;;11.30;5.63;;;;;;;10.06;100.00;96777.09;4997285;28;20060;-80
2021/05/13 11:25:20;;;;;;;12.63;6.78;;;;;;;10.12;100.00;96783.09;4990523;28;20046;-78
2021/05/13 11:27:47;;;;;;;12.00;6.40;;;;;;;10.27;100.00;96777.09;4975629;28;20057;-80
2021/05/13 11:30:15;;;;;;;9.70;6.18;;;;;;;10.28;100.00;96779.47;4985264;28;20153;-78
2021/05/13 11:32:41;;;;;;;13.55;6.30;;;;;;;10.26;100.00;96780.91;4990870;28;20497;-80
2021/05/13 11:35:09;;;;;;;11.88;5.97;;;;;;;10.15;100.00;96775.13;4991542;28;20049;-78
2021/05/13 11:37:38;;;;;;;15.00;7.07;;;;;;;10.28;100.00;96776.75;4989526;28;20080;-79
2021/05/13 11:40:21;;;;;;;12.48;6.80;;;;;;;10.41;100.00;96783.00;4988570;28;20065;-78
2021/05/13 11:42:49;;;;;;;17.02;6.85;;;;;;;10.34;100.00;96782.75;4987899;28;20053;-77
2021/05/13 11:45:21;;;;;;;14.32;7.35;;;;;;;10.28;100.00;96774.06;4987227;28;20043;-78
2021/05/13 11:47:49;;;;;;;10.13;7.40;;;;;;;10.38;100.00;96781.75;4987887;28;20137;-75
2021/05/13 11:50:26;;;;;;;14.10;7.07;;;;;;;10.44;100.00;96777.72;4987154;28;20058;-77
2021/05/13 11:53:04;;;;;;;12.70;6.95;;;;;;;10.23;100.00;96776.16;4987557;28;20115;-78
2021/05/13 11:55:31;;;;;;;12.52;7.10;;;;;;;10.30;100.00;96773.69;5005228;28;20446;-79
2021/05/13 11:57:58;;;;;;;14.35;7.50;;;;;;;10.28;100.00;96779.47;4990124;28;20050;-76
2021/05/13 12:00:25;;;;;;;17.38;7.85;;;;;;;10.45;100.00;96773.84;4997547;28;20050;-77
2021/05/13 12:03:08;;;;;;;14.60;8.80;;;;;;;10.54;100.00;96771.06;4968556;28;20134;-79
2021/05/13 12:05:49;;;;;;;17.83;8.93;;;;;;;10.39;100.00;96771.72;4968930;28;20058;-78
2021/05/13 12:08:17;;;;;;;17.27;9.45;;;;;;;10.30;100.00;96768.28;4968127;28;20449;-79
2021/05/13 12:10:44;;;;;;;16.45;8.68;;;;;;;10.21;100.00;96773.00;4971871;28;20054;-79
2021/05/13 12:13:11;;;;;;;13.32;8.32;;;;;;;10.29;100.00;96767.53;4995601;28;20070;-77
2021/05/13 12:15:38;;;;;;;17.27;9.02;;;;;;;10.34;100.00;96758.41;5006118;28;20137;-80
2021/05/13 12:18:05;;;;;;;20.05;9.25;;;;;;;10.25;100.00;96761.19;5008568;28;20046;-79
2021/05/13 12:20:33;;;;;;;18.10;9.35;;;;;;;10.25;100.00;96768.50;4992365;28;20061;-78
2021/05/13 12:23:01;;;;;;;20.92;10.98;;;;;;;10.22;100.00;96772.66;4989935;28;20157;-79
2021/05/13 12:25:29;;;;;;;24.15;11.82;;;;;;;10.26;100.00;96770.91;4989006;28;20081;-80
2021/05/13 12:27:57;;;;;;;20.80;11.90;;;;;;;10.21;100.00;96773.00;4982612;28;20043;-77
2021/05/13 12:30:24;;;;;;;23.88;13.90;;;;;;;10.30;100.00;96773.69;4984819;28;20061;-78
2021/05/13 12:32:53;;;;;;;23.08;12.95;;;;;;;10.24;100.00;96777.75;4988812;28;20394;-77
2021/05/13 12:35:32;;;;;;;24.70;14.10;;;;;;;10.24;100.00;96772.34;5004189;23;20054;-76
2021/05/13 12:38:21;;;;;;;21.67;11.82;;;;;;;10.22;100.00;96778.06;4985677;28;20058;-76
2021/05/13 12:40:49;;;;;;;25.42;14.82;;;;;;;10.33;100.00;96773.03;4983806;28;20050;-78
2021/05/13 12:43:19;;;;;;;24.38;13.98;;;;;;;10.25;100.00;96782.81;4987910;28;20058;-78
2021/05/13 12:45:48;;;;;;;25.60;15.23;;;;;;;10.49;100.00;96776.69;4987704;28;20081;-78
2021/05/13 12:48:29;;;;;;;27.67;15.35;;;;;;;10.63;100.00;96772.53;4990766;28;20374;-78
2021/05/13 12:51:01;;;;;;;21.95;12.07;;;;;;;10.53;100.00;96758.66;4973769;28;20423;-79
2021/05/13 12:53:31;;;;;;;18.30;10.95;;;;;;;10.56;100.00;96758.00;4989701;28;20073;-78
2021/05/13 12:55:58;;;;;;;22.00;12.85;;;;;;;10.69;100.00;96759.59;4988042;28;20113;-80
2021/05/13 12:58:29;;;;;;;19.48;11.50;;;;;;;10.56;100.00;96755.28;4989244;28;20521;-79
2021/05/13 13:01:02;;;;;;;17.75;11.70;;;;;;;10.54;100.00;96744.81;4989809;28;20046;-80
2021/05/13 13:03:42;;;;;;;23.58;12.90;;;;;;;10.64;100.00;96751.69;4993365;28;20141;-80
2021/05/13 13:06:14;;;;;;;19.52;13.63;;;;;;;10.80;100.00;96758.03;4993406;28;20042;-79
2021/05/13 13:08:46;;;;;;;20.98;14.00;;;;;;;10.87;100.00;96758.25;4992084;28;20514;-79
2021/05/13 13:11:16;;;;;;;16.88;11.80;;;;;;;10.86;100.00;96753.97;4994075;28;20676;-79
2021/05/13 13:13:45;;;;;;;19.38;13.23;;;;;;;10.80;100.00;96749.13;4996018;28;20110;-80
2021/05/13 13:16:23;;;;;;;22.67;13.32;;;;;;;10.63;100.00;96744.72;5000962;28;20057;-79
2021/05/13 13:19:20;;;;;;;19.55;13.80;;;;;;;10.47;100.00;96760.81;4994746;28;20046;-77
2021/05/13 13:22:01;;;;;;;22.60;14.98;;;;;;;10.45;100.00;96757.63;4971712;28;20081;-78
2021/05/13 13:24:29;;;;;;;25.73;16.80;;;;;;;10.33;100.00;96763.00;4971329;28;20287;-78
2021/05/13 13:27:00;;;;;;;26.52;17.73;;;;;;;10.32;100.00;96756.03;4974027;28;20051;-79
2021/05/13 13:29:27;;;;;;;31.75;18.50;;;;;;;10.36;100.00;96756.16;4995657;28;20619;-77
2021/05/13 13:31:58;;;;;;;29.23;18.35;;;;;;;10.38;100.00;96754.69;4994077;28;20057;-79
2021/05/13 13:34:35;;;;;;;27.92;17.92;;;;;;;10.34;100.00;96756.50;4992273;28;20054;-81
2021/05/13 13:37:02;;;;;;;25.05;16.30;;;;;;;10.29;100.00;96758.63;4991510;28;20043;-78
2021/05/13 13:39:29;;;;;;;27.67;16.25;;;;;;;10.16;100.00;96757.78;4990924;28;20046;-77
2021/05/13 13:41:57;;;;;;;20.27;13.05;;;;;;;10.09;100.00;96764.84;4978548;28;20056;-79
2021/05/13 13:44:26;;;;;;;18.20;11.50;;;;;;;9.96;100.00;96766.69;4991153;28;20089;-78
2021/05/13 13:46:53;;;;;;;18.15;12.35;;;;;;;10.01;100.00;96761.84;4989682;28;20038;-79
2021/05/13 13:49:21;;;;;;;21.73;12.68;;;;;;;9.96;100.00;96764.00;4983438;28;20038;-79
2021/05/13 13:51:47;;;;;;;17.85;12.02;;;;;;;9.91;100.00;96762.28;4999277;28;20078;-80
2021/05/13 13:54:14;;;;;;;15.95;10.88;;;;;;;9.84;100.00;96759.31;4992659;28;20050;-79
2021/05/13 13:56:43;;;;;;;17.90;11.00;;;;;;;9.89;100.00;96756.41;4991564;28;20077;-80
2021/05/13 13:59:09;;;;;;;17.08;11.30;;;;;;;9.91;100.00;96759.56;4993252;28;20054;-79
2021/05/13 14:01:36;;;;;;;19.10;11.40;;;;;;;9.85;100.00;96757.41;4991777;28;20082;-79
2021/05/13 14:04:03;;;;;;;20.45;10.77;;;;;;;9.86;100.00;96753.56;4991764;28;20050;-79
2021/05/13 14:06:30;;;;;;;19.48;11.32;;;;;;;9.92;100.00;96763.88;4992523;28;20050;-79
2021/05/13 14:08:57;;;;;;;20.95;11.15;;;;;;;9.95;100.00;96751.59;4990459;28;20054;-79
2021/05/13 14:11:25;;;;;;;23.08;11.23;;;;;;;10.03;100.00;96756.94;4974553;28;20054;-79
2021/05/13 14:13:52;;;;;;;15.90;10.38;;;;;;;10.07;100.00;96759.75;4991924;28;20042;-79
2021/05/13 14:16:19;;;;;;;17.92;10.40;;;;;;;10.10;100.00;96764.50;4992529;28;20722;-78
2021/05/13 14:18:48;;;;;;;16.15;9.23;;;;;;;10.01;100.00;96758.38;4995479;28;20081;-79
2021/05/13 14:21:14;;;;;;;19.33;10.50;;;;;;;9.97;100.00;96752.84;4993760;28;20050;-79
2021/05/13 14:23:42;;;;;;;13.32;8.45;;;;;;;9.97;100.00;96754.75;4993773;28;20057;-78
2021/05/13 14:26:08;;;;;;;15.23;9.98;;;;;;;10.08;100.00;96755.94;5006924;28;20074;-79
2021/05/13 14:28:35;;;;;;;15.32;9.90;;;;;;;10.02;100.00;96747.22;4993590;28;20046;-78
2021/05/13 14:31:02;;;;;;;19.42;10.43;;;;;;;9.98;100.00;96749.03;4992632;28;20053;-77
2021/05/13 14:33:28;;;;;;;19.23;11.63;;;;;;;10.01;100.00;96752.97;4992869;28;20055;-78
2021/05/13 14:35:58;;;;;;;17.58;11.40;;;;;;;10.12;100.00;96753.34;5008132;28;20060;-79
2021/05/13 14:38:26;;;;;;;15.82;10.57;;;;;;;10.10;100.00;96755.59;4992817;28;20082;-78
2021/05/13 14:40:54;;;;;;;17.65;10.52;;;;;;;10.04;100.00;96752.28;4993878;28;20084;-77
2021/05/13 14:43:21;;;;;;;13.93;7.85;;;;;;;9.94;100.00;96758.09;4993370;28;20528;-78
2021/05/13 14:45:48;;;;;;;17.67;9.95;;;;;;;9.94;100.00;96758.91;4989980;28;20050;-80
2021/05/13 14:48:17;;;;;;;14.63;8.73;;;;;;;9.88;100.00;96743.25;4993516;28;20054;-79
2021/05/13 14:50:46;;;;;;;14.30;7.55;;;;;;;9.89;100.00;96761.03;4995403;28;20054;-79
2021/05/13 14:53:13;;;;;;;12.52;6.70;;;;;;;9.78;100.00;96762.56;4995254;28;20054;-77
2021/05/13 14:55:40;;;;;;;12.32;7.40;;;;;;;9.78;100.00;96757.94;4994132;28;20050;-77
2021/05/13 14:58:09;;;;;;;11.40;6.82;;;;;;;9.77;100.00;96766.38;4974529;28;20513;-78
2021/05/13 15:00:39;;;;;;;9.23;6.05;;;;;;;9.70;100.00;96763.41;4996663;28;20050;-78
2021/05/13 15:03:06;;;;;;;12.98;6.82;;;;;;;9.72;100.00;96755.75;4992273;28;20047;-78
2021/05/13 15:05:35;;;;;;;11.43;6.40;;;;;;;9.58;100.00;96753.31;4993070;28;20053;-77
2021/05/13 15:08:02;;;;;;;17.77;7.30;;;;;;;9.64;100.00;96764.72;4992121;28;20050;-78
2021/05/13 15:10:28;;;;;;;11.60;7.18;;;;;;;9.61;100.00;96763.47;4991237;28;20116;-79
2021/05/13 15:12:55;;;;;;;15.15;7.45;;;;;;;9.66;100.00;96757.88;4996091;28;20076;-79
2021/05/13 15:15:25;;;;;;;9.90;7.25;;;;;;;9.62;100.00;96766.97;4994966;28;20068;-79
2021/05/13 15:17:54;;;;;;;15.65;8.05;;;;;;;9.71;100.00;96764.97;4995177;28;20076;-79
2021/05/13 15:20:21;;;;;;;17.40;8.30;;;;;;;9.75;100.00;96766.72;4975999;28;20058;-78
2021/05/13 15:22:49;;;;;;;12.25;7.50;;;;;;;9.74;100.00;96765.13;4974310;28;20100;-77
2021/05/13 15:25:15;;;;;;;14.30;7.70;;;;;;;9.69;100.00;96759.13;4991789;28;20050;-78
2021/05/13 15:27:42;;;;;;;16.63;8.00;;;;;;;9.71;100.00;96765.78;4991477;28;20127;-78
2021/05/13 15:30:13;;;;;;;16.02;7.97;;;;;;;9.79;100.00;96772.22;5008032;28;20042;-80
2021/05/13 15:32:40;;;;;;;18.25;8.98;;;;;;;9.82;100.00;96766.97;5007349;28;20045;-78
2021/05/13 15:35:08;;;;;;;17.02;8.85;;;;;;;9.75;100.00;96772.13;4971949;28;20749;-78
2021/05/13 15:37:34;;;;;;;16.15;8.48;;;;;;;9.74;100.00;96778.63;4974153;28;20051;-79
2021/05/13 15:40:04;;;;;;;15.23;8.10;;;;;;;9.73;100.00;96771.63;4991086;28;20485;-78
2021/05/13 15:42:30;;;;;;;16.35;8.35;;;;;;;9.69;100.00;96764.53;4996567;28;20050;-78
2021/05/13 15:44:57;;;;;;;17.20;7.68;;;;;;;9.69;100.00;96769.94;4994920;28;20054;-79